sensor_id;sensor_type;location;lat;lon;timestamp;P1;durP1;ratioP1;P2;durP2;ratioP2
37379;SDS011;23252;-33.992;18.480;2023-06-10T00:00:46;34.30;;;12.70;;
37379;SDS011;23252;-33.992;18.480;2023-06-10T00:03:12;34.47;;;13.00;;
37379;SDS011;23252;-33.992;18.480;2023-06-10T00:05:39;30.10;;;13.20;;
37379;SDS011;23252;-33.992;18.480;2023-06-10T00:08:07;35.47;;;14.27;;
37379;SDS011;23252;-33.992;18.480;2023-06-10T00:10:34;39.83;;;14.13;;
37379;SDS011;23252;-33.992;18.480;2023-06-10T00:13:02;45.58;;;15.32;;
37379;SDS011;23252;-33.992;18.480;2023-06-10T00:15:32;41.05;;;16.75;;
37379;SDS011;23252;-33.992;18.480;2023-06-10T00:17:58;37.58;;;15.95;;
37379;SDS011;23252;-33.992;18.480;2023-06-10T00:20:26;48.95;;;17.35;;
37379;SDS011;23252;-33.992;18.480;2023-06-10T00:22:52;31.63;;;15.20;;
37379;SDS011;23252;-33.992;18.480;2023-06-10T00:25:22;35.20;;;14.73;;
37379;SDS011;23252;-33.992;18.480;2023-06-10T00:27:48;42.65;;;15.25;;
37379;SDS011;23252;-33.992;18.480;2023-06-10T00:30:15;37.03;;;14.80;;
37379;SDS011;23252;-33.992;18.480;2023-06-10T00:32:41;39.97;;;15.40;;
37379;SDS011;23252;-33.992;18.480;2023-06-10T00:35:08;37.08;;;15.18;;
37379;SDS011;23252;-33.992;18.480;2023-06-10T00:37:35;34.55;;;16.77;;
37379;SDS011;23252;-33.992;18.480;2023-06-10T00:40:02;46.83;;;16.70;;
37379;SDS011;23252;-33.992;18.480;2023-06-10T00:42:29;33.55;;;16.17;;
37379;SDS011;23252;-33.992;18.480;2023-06-10T00:44:56;44.45;;;18.17;;
37379;SDS011;23252;-33.992;18.480;2023-06-10T00:47:23;42.83;;;17.25;;
37379;SDS011;23252;-33.992;18.480;2023-06-10T00:49:50;38.53;;;16.70;;
37379;SDS011;23252;-33.992;18.480;2023-06-10T00:52:17;44.15;;;18.13;;
37379;SDS011;23252;-33.992;18.480;2023-06-10T00:54:45;37.42;;;16.10;;
37379;SDS011;23252;-33.992;18.480;2023-06-10T00:57:12;36.85;;;13.65;;
37379;SDS011;23252;-33.992;18.480;2023-06-10T00:59:42;29.67;;;12.63;;
37379;SDS011;23252;-33.992;18.480;2023-06-10T01:02:12;29.75;;;12.88;;
37379;SDS011;23252;-33.992;18.480;2023-06-10T01:04:39;31.57;;;12.17;;
37379;SDS011;23252;-33.992;18.480;2023-06-10T01:15:05;43.05;;;12.93;;
37379;SDS011;23252;-33.992;18.480;2023-06-10T01:17:33;31.52;;;14.13;;
37379;SDS011;23252;-33.992;18.480;2023-06-10T01:20:16;32.13;;;12.02;;
37379;SDS011;23252;-33.992;18.480;2023-06-10T01:22:43;35.40;;;11.67;;
37379;SDS011;23252;-33.992;18.480;2023-06-10T01:27:37;29.08;;;8.15;;
37379;SDS011;23252;-33.992;18.480;2023-06-10T01:30:08;25.35;;;7.63;;
37379;SDS011;23252;-33.992;18.480;2023-06-10T01:32:43;19.05;;;6.88;;
37379;SDS011;23252;-33.992;18.480;2023-06-10T01:35:13;21.23;;;6.68;;
37379;SDS011;23252;-33.992;18.480;2023-06-10T01:37:41;23.67;;;7.40;;
37379;SDS011;23252;-33.992;18.480;2023-06-10T01:40:13;26.10;;;8.10;;
37379;SDS011;23252;-33.992;18.480;2023-06-10T01:42:40;27.00;;;8.60;;
37379;SDS011;23252;-33.992;18.480;2023-06-10T01:45:07;30.67;;;9.93;;
37379;SDS011;23252;-33.992;18.480;2023-06-10T01:47:34;23.58;;;10.10;;
37379;SDS011;23252;-33.992;18.480;2023-06-10T01:50:01;28.05;;;9.30;;
37379;SDS011;23252;-33.992;18.480;2023-06-10T01:52:27;25.10;;;9.27;;
37379;SDS011;23252;-33.992;18.480;2023-06-10T01:54:54;28.55;;;8.00;;
37379;SDS011;23252;-33.992;18.480;2023-06-10T01:57:20;22.98;;;6.75;;
37379;SDS011;23252;-33.992;18.480;2023-06-10T01:59:47;26.00;;;7.17;;
37379;SDS011;23252;-33.992;18.480;2023-06-10T02:02:13;18.20;;;6.53;;
37379;SDS011;23252;-33.992;18.480;2023-06-10T02:04:40;24.48;;;6.85;;
37379;SDS011;23252;-33.992;18.480;2023-06-10T02:07:06;21.55;;;7.60;;
37379;SDS011;23252;-33.992;18.480;2023-06-10T02:09:33;20.83;;;7.10;;
37379;SDS011;23252;-33.992;18.480;2023-06-10T02:14:32;23.92;;;8.57;;
37379;SDS011;23252;-33.992;18.480;2023-06-10T02:16:58;21.85;;;8.45;;
37379;SDS011;23252;-33.992;18.480;2023-06-10T02:19:29;21.73;;;8.00;;
37379;SDS011;23252;-33.992;18.480;2023-06-10T02:21:56;25.77;;;8.18;;
37379;SDS011;23252;-33.992;18.480;2023-06-10T02:24:22;23.73;;;8.73;;
37379;SDS011;23252;-33.992;18.480;2023-06-10T02:26:49;27.27;;;9.20;;
37379;SDS011;23252;-33.992;18.480;2023-06-10T02:29:18;27.88;;;8.35;;
37379;SDS011;23252;-33.992;18.480;2023-06-10T02:31:45;26.15;;;8.80;;
37379;SDS011;23252;-33.992;18.480;2023-06-10T02:34:15;26.60;;;8.80;;
37379;SDS011;23252;-33.992;18.480;2023-06-10T02:36:41;22.77;;;8.43;;
37379;SDS011;23252;-33.992;18.480;2023-06-10T02:39:10;23.88;;;8.35;;
37379;SDS011;23252;-33.992;18.480;2023-06-10T02:41:37;26.95;;;8.82;;
37379;SDS011;23252;-33.992;18.480;2023-06-10T02:44:07;26.52;;;9.10;;
37379;SDS011;23252;-33.992;18.480;2023-06-10T02:46:33;23.05;;;8.23;;
37379;SDS011;23252;-33.992;18.480;2023-06-10T02:49:05;28.83;;;9.30;;
37379;SDS011;23252;-33.992;18.480;2023-06-10T02:51:35;28.65;;;10.18;;
37379;SDS011;23252;-33.992;18.480;2023-06-10T02:54:02;22.65;;;8.52;;
37379;SDS011;23252;-33.992;18.480;2023-06-10T02:56:29;28.23;;;9.38;;
37379;SDS011;23252;-33.992;18.480;2023-06-10T02:58:58;16.43;;;8.10;;
37379;SDS011;23252;-33.992;18.480;2023-06-10T03:01:27;29.15;;;8.88;;
37379;SDS011;23252;-33.992;18.480;2023-06-10T03:03:56;17.70;;;8.27;;
37379;SDS011;23252;-33.992;18.480;2023-06-10T03:06:26;28.02;;;8.52;;
37379;SDS011;23252;-33.992;18.480;2023-06-10T03:08:52;20.35;;;7.53;;
37379;SDS011;23252;-33.992;18.480;2023-06-10T03:11:19;18.75;;;7.47;;
37379;SDS011;23252;-33.992;18.480;2023-06-10T03:13:51;25.95;;;7.45;;
37379;SDS011;23252;-33.992;18.480;2023-06-10T03:16:21;23.40;;;7.35;;
37379;SDS011;23252;-33.992;18.480;2023-06-10T03:18:48;20.25;;;7.95;;
37379;SDS011;23252;-33.992;18.480;2023-06-10T03:21:15;22.60;;;7.80;;
37379;SDS011;23252;-33.992;18.480;2023-06-10T03:23:41;16.27;;;6.90;;
37379;SDS011;23252;-33.992;18.480;2023-06-10T03:26:08;14.93;;;5.82;;
37379;SDS011;23252;-33.992;18.480;2023-06-10T03:28:39;20.80;;;5.50;;
37379;SDS011;23252;-33.992;18.480;2023-06-10T03:31:06;17.50;;;5.03;;
37379;SDS011;23252;-33.992;18.480;2023-06-10T03:33:32;23.07;;;4.83;;
37379;SDS011;23252;-33.992;18.480;2023-06-10T03:36:02;14.05;;;4.85;;
37379;SDS011;23252;-33.992;18.480;2023-06-10T03:38:29;17.33;;;4.80;;
37379;SDS011;23252;-33.992;18.480;2023-06-10T03:41:01;18.63;;;4.95;;
37379;SDS011;23252;-33.992;18.480;2023-06-10T03:43:30;17.60;;;3.42;;
37379;SDS011;23252;-33.992;18.480;2023-06-10T03:45:57;20.00;;;4.27;;
37379;SDS011;23252;-33.992;18.480;2023-06-10T03:48:26;19.92;;;3.90;;
37379;SDS011;23252;-33.992;18.480;2023-06-10T03:50:53;14.77;;;3.80;;
37379;SDS011;23252;-33.992;18.480;2023-06-10T03:53:19;12.43;;;3.47;;
37379;SDS011;23252;-33.992;18.480;2023-06-10T03:55:46;15.98;;;3.97;;
37379;SDS011;23252;-33.992;18.480;2023-06-10T03:58:16;14.07;;;3.75;;
37379;SDS011;23252;-33.992;18.480;2023-06-10T04:00:43;14.52;;;4.28;;
37379;SDS011;23252;-33.992;18.480;2023-06-10T04:03:10;15.88;;;4.82;;
37379;SDS011;23252;-33.992;18.480;2023-06-10T04:05:40;15.88;;;4.75;;
37379;SDS011;23252;-33.992;18.480;2023-06-10T04:08:07;18.75;;;5.22;;
37379;SDS011;23252;-33.992;18.480;2023-06-10T04:10:34;15.55;;;5.88;;
37379;SDS011;23252;-33.992;18.480;2023-06-10T04:13:01;27.90;;;6.68;;
37379;SDS011;23252;-33.992;18.480;2023-06-10T04:17:57;25.88;;;9.25;;
37379;SDS011;23252;-33.992;18.480;2023-06-10T04:20:25;22.30;;;10.38;;
37379;SDS011;23252;-33.992;18.480;2023-06-10T04:22:51;21.33;;;10.05;;
37379;SDS011;23252;-33.992;18.480;2023-06-10T04:25:18;18.63;;;8.73;;
37379;SDS011;23252;-33.992;18.480;2023-06-10T04:27:45;18.98;;;9.07;;
37379;SDS011;23252;-33.992;18.480;2023-06-10T04:30:12;19.67;;;9.60;;
37379;SDS011;23252;-33.992;18.480;2023-06-10T04:32:39;23.63;;;9.77;;
37379;SDS011;23252;-33.992;18.480;2023-06-10T04:35:05;20.13;;;8.40;;
37379;SDS011;23252;-33.992;18.480;2023-06-10T04:37:32;22.13;;;8.00;;
37379;SDS011;23252;-33.992;18.480;2023-06-10T04:39:59;20.03;;;7.97;;
37379;SDS011;23252;-33.992;18.480;2023-06-10T04:42:26;14.20;;;8.27;;
37379;SDS011;23252;-33.992;18.480;2023-06-10T04:44:53;19.50;;;9.83;;
37379;SDS011;23252;-33.992;18.480;2023-06-10T04:47:19;21.38;;;9.93;;
37379;SDS011;23252;-33.992;18.480;2023-06-10T04:49:46;21.50;;;9.57;;
37379;SDS011;23252;-33.992;18.480;2023-06-10T04:52:13;24.50;;;10.57;;
37379;SDS011;23252;-33.992;18.480;2023-06-10T04:54:39;18.15;;;8.60;;
37379;SDS011;23252;-33.992;18.480;2023-06-10T04:57:06;16.77;;;9.50;;
37379;SDS011;23252;-33.992;18.480;2023-06-10T04:59:33;20.55;;;9.18;;
37379;SDS011;23252;-33.992;18.480;2023-06-10T05:02:03;19.23;;;7.60;;
37379;SDS011;23252;-33.992;18.480;2023-06-10T05:04:30;21.50;;;7.93;;
37379;SDS011;23252;-33.992;18.480;2023-06-10T05:07:00;13.77;;;7.25;;
37379;SDS011;23252;-33.992;18.480;2023-06-10T05:09:26;18.88;;;8.50;;
37379;SDS011;23252;-33.992;18.480;2023-06-10T05:11:53;21.37;;;9.00;;
37379;SDS011;23252;-33.992;18.480;2023-06-10T05:14:19;20.77;;;8.25;;
37379;SDS011;23252;-33.992;18.480;2023-06-10T05:16:46;17.80;;;7.90;;
37379;SDS011;23252;-33.992;18.480;2023-06-10T05:19:16;18.95;;;8.32;;
37379;SDS011;23252;-33.992;18.480;2023-06-10T05:21:44;18.80;;;7.45;;
37379;SDS011;23252;-33.992;18.480;2023-06-10T05:26:37;22.02;;;8.07;;
37379;SDS011;23252;-33.992;18.480;2023-06-10T05:29:04;17.98;;;7.20;;
37379;SDS011;23252;-33.992;18.480;2023-06-10T05:31:31;22.17;;;7.72;;
37379;SDS011;23252;-33.992;18.480;2023-06-10T05:33:58;15.82;;;7.78;;
37379;SDS011;23252;-33.992;18.480;2023-06-10T05:36:24;21.67;;;7.63;;
37379;SDS011;23252;-33.992;18.480;2023-06-10T05:41:21;19.25;;;8.13;;
37379;SDS011;23252;-33.992;18.480;2023-06-10T05:43:47;17.17;;;7.73;;
37379;SDS011;23252;-33.992;18.480;2023-06-10T05:46:17;17.63;;;7.43;;
37379;SDS011;23252;-33.992;18.480;2023-06-10T05:48:43;17.83;;;6.63;;
37379;SDS011;23252;-33.992;18.480;2023-06-10T05:51:12;15.88;;;7.15;;
37379;SDS011;23252;-33.992;18.480;2023-06-10T05:53:42;14.00;;;7.30;;
37379;SDS011;23252;-33.992;18.480;2023-06-10T05:56:08;17.30;;;8.20;;
37379;SDS011;23252;-33.992;18.480;2023-06-10T05:58:39;18.95;;;8.00;;
37379;SDS011;23252;-33.992;18.480;2023-06-10T06:01:05;23.07;;;13.10;;
37379;SDS011;23252;-33.992;18.480;2023-06-10T06:03:35;21.42;;;9.10;;
37379;SDS011;23252;-33.992;18.480;2023-06-10T06:06:02;16.70;;;8.17;;
37379;SDS011;23252;-33.992;18.480;2023-06-10T06:08:29;15.88;;;7.93;;
37379;SDS011;23252;-33.992;18.480;2023-06-10T06:10:56;20.75;;;8.57;;
37379;SDS011;23252;-33.992;18.480;2023-06-10T06:13:22;19.42;;;8.57;;
37379;SDS011;23252;-33.992;18.480;2023-06-10T06:15:52;17.58;;;8.25;;
37379;SDS011;23252;-33.992;18.480;2023-06-10T06:18:21;16.52;;;8.25;;
37379;SDS011;23252;-33.992;18.480;2023-06-10T06:20:50;19.13;;;9.45;;
37379;SDS011;23252;-33.992;18.480;2023-06-10T06:23:25;20.35;;;8.60;;
37379;SDS011;23252;-33.992;18.480;2023-06-10T06:25:52;21.25;;;8.90;;
37379;SDS011;23252;-33.992;18.480;2023-06-10T06:28:18;26.87;;;10.37;;
37379;SDS011;23252;-33.992;18.480;2023-06-10T06:30:46;20.60;;;9.73;;
37379;SDS011;23252;-33.992;18.480;2023-06-10T06:33:15;21.05;;;10.30;;
37379;SDS011;23252;-33.992;18.480;2023-06-10T06:35:42;18.63;;;11.13;;
37379;SDS011;23252;-33.992;18.480;2023-06-10T06:38:08;26.95;;;12.63;;
37379;SDS011;23252;-33.992;18.480;2023-06-10T06:40:37;23.92;;;12.13;;
37379;SDS011;23252;-33.992;18.480;2023-06-10T06:43:06;29.30;;;12.63;;
37379;SDS011;23252;-33.992;18.480;2023-06-10T06:45:35;29.88;;;11.98;;
37379;SDS011;23252;-33.992;18.480;2023-06-10T06:48:08;28.20;;;13.60;;
37379;SDS011;23252;-33.992;18.480;2023-06-10T06:50:41;25.98;;;13.60;;
37379;SDS011;23252;-33.992;18.480;2023-06-10T06:53:08;23.10;;;12.43;;
37379;SDS011;23252;-33.992;18.480;2023-06-10T06:55:36;29.50;;;13.63;;
37379;SDS011;23252;-33.992;18.480;2023-06-10T06:58:09;24.00;;;13.18;;
37379;SDS011;23252;-33.992;18.480;2023-06-10T07:00:37;27.90;;;13.52;;
37379;SDS011;23252;-33.992;18.480;2023-06-10T07:03:04;30.42;;;12.55;;
37379;SDS011;23252;-33.992;18.480;2023-06-10T07:05:31;19.03;;;9.83;;
37379;SDS011;23252;-33.992;18.480;2023-06-10T07:08:09;21.85;;;11.15;;
37379;SDS011;23252;-33.992;18.480;2023-06-10T07:10:37;19.67;;;9.02;;
37379;SDS011;23252;-33.992;18.480;2023-06-10T07:13:03;19.75;;;8.00;;
37379;SDS011;23252;-33.992;18.480;2023-06-10T07:15:30;23.30;;;7.70;;
37379;SDS011;23252;-33.992;18.480;2023-06-10T07:18:00;21.10;;;5.25;;
37379;SDS011;23252;-33.992;18.480;2023-06-10T07:20:26;16.90;;;4.50;;
37379;SDS011;23252;-33.992;18.480;2023-06-10T07:22:56;19.23;;;4.68;;
37379;SDS011;23252;-33.992;18.480;2023-06-10T07:25:22;18.93;;;5.80;;
37379;SDS011;23252;-33.992;18.480;2023-06-10T07:27:55;15.18;;;4.30;;
37379;SDS011;23252;-33.992;18.480;2023-06-10T07:30:27;22.35;;;5.18;;
37379;SDS011;23252;-33.992;18.480;2023-06-10T07:32:54;15.00;;;5.03;;
37379;SDS011;23252;-33.992;18.480;2023-06-10T07:35:24;17.65;;;4.95;;
37379;SDS011;23252;-33.992;18.480;2023-06-10T07:37:59;21.15;;;6.13;;
37379;SDS011;23252;-33.992;18.480;2023-06-10T07:40:31;12.98;;;4.60;;
37379;SDS011;23252;-33.992;18.480;2023-06-10T07:43:03;18.10;;;6.00;;
37379;SDS011;23252;-33.992;18.480;2023-06-10T07:45:29;18.20;;;4.93;;
37379;SDS011;23252;-33.992;18.480;2023-06-10T07:47:56;16.33;;;4.67;;
37379;SDS011;23252;-33.992;18.480;2023-06-10T07:50:26;25.35;;;5.57;;
37379;SDS011;23252;-33.992;18.480;2023-06-10T07:52:52;14.10;;;3.80;;
37379;SDS011;23252;-33.992;18.480;2023-06-10T07:55:27;13.50;;;4.57;;
37379;SDS011;23252;-33.992;18.480;2023-06-10T07:57:57;14.35;;;3.88;;
37379;SDS011;23252;-33.992;18.480;2023-06-10T08:00:29;16.92;;;3.90;;
37379;SDS011;23252;-33.992;18.480;2023-06-10T08:03:04;14.70;;;4.40;;
37379;SDS011;23252;-33.992;18.480;2023-06-10T08:05:31;13.27;;;3.88;;
37379;SDS011;23252;-33.992;18.480;2023-06-10T08:07:57;15.67;;;4.83;;
37379;SDS011;23252;-33.992;18.480;2023-06-10T08:10:33;25.23;;;6.07;;
37379;SDS011;23252;-33.992;18.480;2023-06-10T08:13:05;18.75;;;5.00;;
37379;SDS011;23252;-33.992;18.480;2023-06-10T08:15:37;17.63;;;5.18;;
37379;SDS011;23252;-33.992;18.480;2023-06-10T08:18:07;14.25;;;5.13;;
37379;SDS011;23252;-33.992;18.480;2023-06-10T08:20:45;14.85;;;5.15;;
37379;SDS011;23252;-33.992;18.480;2023-06-10T08:23:14;18.23;;;5.15;;
37379;SDS011;23252;-33.992;18.480;2023-06-10T08:25:45;16.98;;;5.45;;
37379;SDS011;23252;-33.992;18.480;2023-06-10T08:28:11;15.13;;;5.20;;
37379;SDS011;23252;-33.992;18.480;2023-06-10T08:30:41;15.23;;;5.33;;
37379;SDS011;23252;-33.992;18.480;2023-06-10T08:33:13;12.95;;;4.72;;
37379;SDS011;23252;-33.992;18.480;2023-06-10T08:35:40;15.68;;;5.05;;
37379;SDS011;23252;-33.992;18.480;2023-06-10T08:38:06;16.97;;;4.60;;
37379;SDS011;23252;-33.992;18.480;2023-06-10T08:40:39;18.80;;;4.57;;
37379;SDS011;23252;-33.992;18.480;2023-06-10T08:43:22;16.50;;;5.32;;
37379;SDS011;23252;-33.992;18.480;2023-06-10T08:45:52;19.95;;;4.93;;
37379;SDS011;23252;-33.992;18.480;2023-06-10T08:48:22;16.42;;;3.83;;
37379;SDS011;23252;-33.992;18.480;2023-06-10T08:50:50;14.23;;;4.65;;
37379;SDS011;23252;-33.992;18.480;2023-06-10T08:53:19;16.77;;;4.32;;
37379;SDS011;23252;-33.992;18.480;2023-06-10T08:55:46;12.80;;;4.95;;
37379;SDS011;23252;-33.992;18.480;2023-06-10T08:58:18;22.80;;;5.78;;
37379;SDS011;23252;-33.992;18.480;2023-06-10T09:00:46;16.38;;;5.75;;
37379;SDS011;23252;-33.992;18.480;2023-06-10T09:03:13;16.17;;;4.57;;
37379;SDS011;23252;-33.992;18.480;2023-06-10T09:05:40;17.85;;;5.20;;
37379;SDS011;23252;-33.992;18.480;2023-06-10T09:08:07;21.90;;;5.85;;
37379;SDS011;23252;-33.992;18.480;2023-06-10T09:10:34;13.00;;;4.22;;
37379;SDS011;23252;-33.992;18.480;2023-06-10T09:13:01;16.15;;;4.05;;
37379;SDS011;23252;-33.992;18.480;2023-06-10T09:15:27;13.73;;;3.73;;
37379;SDS011;23252;-33.992;18.480;2023-06-10T09:17:54;12.97;;;2.90;;
37379;SDS011;23252;-33.992;18.480;2023-06-10T09:20:21;18.60;;;4.10;;
37379;SDS011;23252;-33.992;18.480;2023-06-10T09:22:48;14.32;;;3.60;;
37379;SDS011;23252;-33.992;18.480;2023-06-10T09:25:15;14.52;;;3.58;;
37379;SDS011;23252;-33.992;18.480;2023-06-10T09:30:26;16.45;;;3.30;;
37379;SDS011;23252;-33.992;18.480;2023-06-10T09:33:01;14.05;;;2.75;;
37379;SDS011;23252;-33.992;18.480;2023-06-10T09:35:34;16.45;;;3.03;;
37379;SDS011;23252;-33.992;18.480;2023-06-10T09:38:01;14.65;;;3.40;;
37379;SDS011;23252;-33.992;18.480;2023-06-10T09:40:28;12.70;;;2.95;;
37379;SDS011;23252;-33.992;18.480;2023-06-10T09:43:13;17.02;;;3.42;;
37379;SDS011;23252;-33.992;18.480;2023-06-10T09:45:40;10.60;;;2.80;;
37379;SDS011;23252;-33.992;18.480;2023-06-10T09:48:08;9.85;;;2.47;;
37379;SDS011;23252;-33.992;18.480;2023-06-10T09:50:36;10.60;;;2.97;;
37379;SDS011;23252;-33.992;18.480;2023-06-10T09:53:11;10.98;;;2.30;;
37379;SDS011;23252;-33.992;18.480;2023-06-10T09:55:38;10.75;;;3.15;;
37379;SDS011;23252;-33.992;18.480;2023-06-10T09:58:06;11.57;;;2.65;;
37379;SDS011;23252;-33.992;18.480;2023-06-10T10:00:33;9.38;;;2.30;;
37379;SDS011;23252;-33.992;18.480;2023-06-10T10:03:00;14.57;;;3.33;;
37379;SDS011;23252;-33.992;18.480;2023-06-10T10:05:27;14.57;;;2.47;;
37379;SDS011;23252;-33.992;18.480;2023-06-10T10:07:55;7.53;;;1.90;;
37379;SDS011;23252;-33.992;18.480;2023-06-10T10:10:24;9.65;;;2.47;;
37379;SDS011;23252;-33.992;18.480;2023-06-10T10:12:54;10.88;;;2.17;;
37379;SDS011;23252;-33.992;18.480;2023-06-10T10:15:21;5.20;;;1.55;;
37379;SDS011;23252;-33.992;18.480;2023-06-10T10:17:55;10.98;;;2.25;;
37379;SDS011;23252;-33.992;18.480;2023-06-10T10:20:29;8.52;;;2.00;;
37379;SDS011;23252;-33.992;18.480;2023-06-10T10:22:59;8.27;;;2.08;;
37379;SDS011;23252;-33.992;18.480;2023-06-10T10:25:34;9.90;;;2.30;;
37379;SDS011;23252;-33.992;18.480;2023-06-10T10:28:09;12.75;;;2.25;;
37379;SDS011;23252;-33.992;18.480;2023-06-10T10:30:44;7.57;;;2.30;;
37379;SDS011;23252;-33.992;18.480;2023-06-10T10:33:25;13.70;;;2.40;;
37379;SDS011;23252;-33.992;18.480;2023-06-10T10:36:02;9.02;;;2.33;;
37379;SDS011;23252;-33.992;18.480;2023-06-10T10:38:28;13.85;;;2.35;;
37379;SDS011;23252;-33.992;18.480;2023-06-10T10:43:25;11.20;;;2.53;;
37379;SDS011;23252;-33.992;18.480;2023-06-10T10:45:59;12.85;;;2.58;;
37379;SDS011;23252;-33.992;18.480;2023-06-10T10:48:27;10.80;;;2.08;;
37379;SDS011;23252;-33.992;18.480;2023-06-10T10:51:02;9.43;;;2.03;;
37379;SDS011;23252;-33.992;18.480;2023-06-10T10:53:31;6.70;;;1.98;;
37379;SDS011;23252;-33.992;18.480;2023-06-10T10:55:58;12.23;;;2.50;;
37379;SDS011;23252;-33.992;18.480;2023-06-10T10:58:30;12.45;;;2.60;;
37379;SDS011;23252;-33.992;18.480;2023-06-10T11:00:57;10.25;;;3.10;;
37379;SDS011;23252;-33.992;18.480;2023-06-10T11:03:27;13.90;;;3.40;;
37379;SDS011;23252;-33.992;18.480;2023-06-10T11:05:57;12.55;;;3.58;;
37379;SDS011;23252;-33.992;18.480;2023-06-10T11:10:57;15.13;;;4.63;;
37379;SDS011;23252;-33.992;18.480;2023-06-10T11:13:24;15.13;;;4.68;;
37379;SDS011;23252;-33.992;18.480;2023-06-10T11:15:52;11.60;;;3.13;;
37379;SDS011;23252;-33.992;18.480;2023-06-10T11:18:29;15.15;;;3.05;;
37379;SDS011;23252;-33.992;18.480;2023-06-10T11:21:01;8.93;;;2.28;;
37379;SDS011;23252;-33.992;18.480;2023-06-10T11:28:42;10.20;;;2.20;;
37379;SDS011;23252;-33.992;18.480;2023-06-10T11:31:31;11.05;;;2.60;;
37379;SDS011;23252;-33.992;18.480;2023-06-10T11:34:01;10.60;;;2.10;;
37379;SDS011;23252;-33.992;18.480;2023-06-10T11:36:30;9.07;;;1.90;;
37379;SDS011;23252;-33.992;18.480;2023-06-10T11:41:28;6.22;;;1.88;;
37379;SDS011;23252;-33.992;18.480;2023-06-10T11:44:17;6.65;;;1.50;;
37379;SDS011;23252;-33.992;18.480;2023-06-10T11:46:44;6.10;;;1.73;;
37379;SDS011;23252;-33.992;18.480;2023-06-10T11:49:11;7.70;;;1.67;;
37379;SDS011;23252;-33.992;18.480;2023-06-10T11:51:38;8.85;;;1.55;;
37379;SDS011;23252;-33.992;18.480;2023-06-10T11:54:09;12.38;;;1.73;;
37379;SDS011;23252;-33.992;18.480;2023-06-10T11:56:36;5.90;;;1.38;;
37379;SDS011;23252;-33.992;18.480;2023-06-10T11:59:03;8.43;;;1.80;;
37379;SDS011;23252;-33.992;18.480;2023-06-10T12:01:34;10.18;;;3.28;;
37379;SDS011;23252;-33.992;18.480;2023-06-10T12:04:08;7.10;;;1.67;;
37379;SDS011;23252;-33.992;18.480;2023-06-10T12:06:40;4.53;;;1.30;;
37379;SDS011;23252;-33.992;18.480;2023-06-10T12:12:04;5.38;;;1.13;;
37379;SDS011;23252;-33.992;18.480;2023-06-10T12:17:22;4.93;;;1.42;;
37379;SDS011;23252;-33.992;18.480;2023-06-10T12:22:36;7.80;;;1.60;;
37379;SDS011;23252;-33.992;18.480;2023-06-10T12:25:10;8.13;;;2.20;;
37379;SDS011;23252;-33.992;18.480;2023-06-10T12:27:40;3.70;;;1.10;;
37379;SDS011;23252;-33.992;18.480;2023-06-10T12:30:20;8.05;;;1.35;;
37379;SDS011;23252;-33.992;18.480;2023-06-10T12:32:51;5.32;;;1.58;;
37379;SDS011;23252;-33.992;18.480;2023-06-10T12:35:41;6.70;;;2.10;;
37379;SDS011;23252;-33.992;18.480;2023-06-10T12:38:34;7.80;;;2.22;;
37379;SDS011;23252;-33.992;18.480;2023-06-10T12:41:05;8.30;;;2.50;;
37379;SDS011;23252;-33.992;18.480;2023-06-10T12:43:35;6.38;;;1.90;;
37379;SDS011;23252;-33.992;18.480;2023-06-10T12:46:11;6.22;;;1.48;;
37379;SDS011;23252;-33.992;18.480;2023-06-10T12:48:43;5.05;;;1.75;;
37379;SDS011;23252;-33.992;18.480;2023-06-10T12:51:23;7.00;;;1.65;;
37379;SDS011;23252;-33.992;18.480;2023-06-10T12:53:53;7.20;;;1.83;;
37379;SDS011;23252;-33.992;18.480;2023-06-10T12:56:19;7.67;;;2.67;;
37379;SDS011;23252;-33.992;18.480;2023-06-10T12:58:52;6.97;;;1.48;;
37379;SDS011;23252;-33.992;18.480;2023-06-10T13:01:18;5.50;;;1.58;;
37379;SDS011;23252;-33.992;18.480;2023-06-10T13:03:45;6.90;;;1.87;;
37379;SDS011;23252;-33.992;18.480;2023-06-10T13:06:11;3.53;;;1.30;;
37379;SDS011;23252;-33.992;18.480;2023-06-10T13:08:38;5.70;;;1.63;;
37379;SDS011;23252;-33.992;18.480;2023-06-10T13:11:05;4.27;;;1.33;;
37379;SDS011;23252;-33.992;18.480;2023-06-10T13:13:40;4.97;;;1.20;;
37379;SDS011;23252;-33.992;18.480;2023-06-10T13:16:12;3.60;;;1.20;;
37379;SDS011;23252;-33.992;18.480;2023-06-10T13:18:44;8.77;;;2.08;;
37379;SDS011;23252;-33.992;18.480;2023-06-10T13:21:16;4.72;;;1.13;;
37379;SDS011;23252;-33.992;18.480;2023-06-10T13:23:46;3.88;;;1.40;;
37379;SDS011;23252;-33.992;18.480;2023-06-10T13:26:13;4.97;;;1.30;;
37379;SDS011;23252;-33.992;18.480;2023-06-10T13:28:43;5.47;;;1.30;;
37379;SDS011;23252;-33.992;18.480;2023-06-10T13:31:13;4.45;;;1.00;;
37379;SDS011;23252;-33.992;18.480;2023-06-10T13:33:39;6.95;;;1.65;;
37379;SDS011;23252;-33.992;18.480;2023-06-10T13:36:08;4.35;;;1.55;;
37379;SDS011;23252;-33.992;18.480;2023-06-10T13:38:36;2.70;;;0.80;;
37379;SDS011;23252;-33.992;18.480;2023-06-10T13:41:02;5.87;;;1.70;;
37379;SDS011;23252;-33.992;18.480;2023-06-10T13:43:35;3.95;;;1.00;;
37379;SDS011;23252;-33.992;18.480;2023-06-10T13:46:01;3.83;;;0.93;;
37379;SDS011;23252;-33.992;18.480;2023-06-10T13:48:31;5.27;;;1.33;;
37379;SDS011;23252;-33.992;18.480;2023-06-10T13:51:00;5.13;;;0.88;;
37379;SDS011;23252;-33.992;18.480;2023-06-10T13:53:27;3.97;;;1.00;;
37379;SDS011;23252;-33.992;18.480;2023-06-10T13:55:55;3.70;;;1.15;;
37379;SDS011;23252;-33.992;18.480;2023-06-10T13:58:25;2.95;;;1.10;;
37379;SDS011;23252;-33.992;18.480;2023-06-10T14:00:51;4.00;;;1.30;;
37379;SDS011;23252;-33.992;18.480;2023-06-10T14:03:23;3.28;;;1.30;;
37379;SDS011;23252;-33.992;18.480;2023-06-10T14:05:56;3.33;;;1.08;;
37379;SDS011;23252;-33.992;18.480;2023-06-10T16:15:47;9.05;;;4.78;;
37379;SDS011;23252;-33.992;18.480;2023-06-10T16:20:40;12.77;;;5.75;;
37379;SDS011;23252;-33.992;18.480;2023-06-10T16:23:07;13.50;;;7.00;;
37379;SDS011;23252;-33.992;18.480;2023-06-10T16:25:34;11.25;;;6.13;;
37379;SDS011;23252;-33.992;18.480;2023-06-10T16:28:00;13.93;;;5.40;;
37379;SDS011;23252;-33.992;18.480;2023-06-10T16:30:28;14.73;;;5.47;;
37379;SDS011;23252;-33.992;18.480;2023-06-10T16:32:55;11.93;;;5.40;;
37379;SDS011;23252;-33.992;18.480;2023-06-10T16:35:21;9.50;;;4.93;;
37379;SDS011;23252;-33.992;18.480;2023-06-10T16:37:48;12.15;;;6.95;;
37379;SDS011;23252;-33.992;18.480;2023-06-10T16:40:14;16.87;;;6.93;;
37379;SDS011;23252;-33.992;18.480;2023-06-10T16:42:41;11.27;;;6.27;;
37379;SDS011;23252;-33.992;18.480;2023-06-10T16:45:07;14.03;;;5.53;;
37379;SDS011;23252;-33.992;18.480;2023-06-10T16:47:34;11.73;;;4.75;;
37379;SDS011;23252;-33.992;18.480;2023-06-10T16:50:01;11.30;;;5.10;;
37379;SDS011;23252;-33.992;18.480;2023-06-10T16:54:55;14.73;;;8.63;;
37379;SDS011;23252;-33.992;18.480;2023-06-10T16:57:21;16.20;;;9.05;;
37379;SDS011;23252;-33.992;18.480;2023-06-10T16:59:48;13.60;;;6.90;;
37379;SDS011;23252;-33.992;18.480;2023-06-10T17:02:14;17.30;;;8.73;;
37379;SDS011;23252;-33.992;18.480;2023-06-10T17:04:41;16.90;;;7.03;;
37379;SDS011;23252;-33.992;18.480;2023-06-10T17:07:08;16.27;;;7.88;;
37379;SDS011;23252;-33.992;18.480;2023-06-10T17:09:46;13.35;;;6.05;;
37379;SDS011;23252;-33.992;18.480;2023-06-10T17:12:12;9.13;;;5.53;;
37379;SDS011;23252;-33.992;18.480;2023-06-10T17:14:42;13.70;;;6.93;;